sensor_id;sensor_type;location;lat;lon;timestamp;temperature;humidity
56538;DHT22;42435;53.292;6.000;2023-04-01T00:01:01;11.30;85.40
56538;DHT22;42435;53.292;6.000;2023-04-01T00:03:28;11.30;85.50
56538;DHT22;42435;53.292;6.000;2023-04-01T00:05:55;11.20;85.50
56538;DHT22;42435;53.292;6.000;2023-04-01T00:08:21;11.20;85.50
56538;DHT22;42435;53.292;6.000;2023-04-01T00:10:47;11.30;85.60
56538;DHT22;42435;53.292;6.000;2023-04-01T00:13:13;11.30;85.60
56538;DHT22;42435;53.292;6.000;2023-04-01T00:15:38;11.20;85.60
56538;DHT22;42435;53.292;6.000;2023-04-01T00:18:06;11.20;85.60
56538;DHT22;42435;53.292;6.000;2023-04-01T00:20:32;11.20;85.60
56538;DHT22;42435;53.292;6.000;2023-04-01T00:22:58;11.20;85.60
56538;DHT22;42435;53.292;6.000;2023-04-01T00:25:27;11.20;85.60
56538;DHT22;42435;53.292;6.000;2023-04-01T00:27:52;11.20;85.60
56538;DHT22;42435;53.292;6.000;2023-04-01T00:30:18;11.20;85.60
56538;DHT22;42435;53.292;6.000;2023-04-01T00:32:46;11.20;85.60
56538;DHT22;42435;53.292;6.000;2023-04-01T00:35:12;11.20;85.60
56538;DHT22;42435;53.292;6.000;2023-04-01T00:37:38;11.20;85.70
56538;DHT22;42435;53.292;6.000;2023-04-01T00:40:07;11.20;85.70
56538;DHT22;42435;53.292;6.000;2023-04-01T00:42:33;11.10;85.70
56538;DHT22;42435;53.292;6.000;2023-04-01T00:45:25;11.10;85.70
56538;DHT22;42435;53.292;6.000;2023-04-01T00:47:51;11.10;85.80
56538;DHT22;42435;53.292;6.000;2023-04-01T00:50:17;11.10;85.70
56538;DHT22;42435;53.292;6.000;2023-04-01T00:52:42;11.10;85.70
56538;DHT22;42435;53.292;6.000;2023-04-01T00:55:13;11.10;85.70
56538;DHT22;42435;53.292;6.000;2023-04-01T00:57:42;11.00;85.70
56538;DHT22;42435;53.292;6.000;2023-04-01T01:00:11;11.00;85.80
56538;DHT22;42435;53.292;6.000;2023-04-01T01:02:41;11.00;85.80
56538;DHT22;42435;53.292;6.000;2023-04-01T01:05:08;11.10;85.90
56538;DHT22;42435;53.292;6.000;2023-04-01T01:08:03;11.00;85.80
56538;DHT22;42435;53.292;6.000;2023-04-01T01:10:35;11.00;86.00
56538;DHT22;42435;53.292;6.000;2023-04-01T01:23:57;11.00;86.00
56538;DHT22;42435;53.292;6.000;2023-04-01T01:26:46;11.00;86.00
56538;DHT22;42435;53.292;6.000;2023-04-01T01:37:43;11.00;86.00
56538;DHT22;42435;53.292;6.000;2023-04-01T01:40:12;11.00;86.00
56538;DHT22;42435;53.292;6.000;2023-04-01T01:42:41;11.00;86.10
56538;DHT22;42435;53.292;6.000;2023-04-01T01:45:15;11.00;86.10
56538;DHT22;42435;53.292;6.000;2023-04-01T01:47:43;11.00;86.10
56538;DHT22;42435;53.292;6.000;2023-04-01T01:50:11;11.10;86.10
56538;DHT22;42435;53.292;6.000;2023-04-01T01:52:40;11.10;86.20
56538;DHT22;42435;53.292;6.000;2023-04-01T01:57:51;11.10;86.30
56538;DHT22;42435;53.292;6.000;2023-04-01T02:00:18;11.10;86.20
56538;DHT22;42435;53.292;6.000;2023-04-01T02:02:46;11.10;86.10
56538;DHT22;42435;53.292;6.000;2023-04-01T02:05:20;11.10;86.20
56538;DHT22;42435;53.292;6.000;2023-04-01T02:07:54;11.10;86.30
56538;DHT22;42435;53.292;6.000;2023-04-01T02:10:25;11.10;86.20
56538;DHT22;42435;53.292;6.000;2023-04-01T02:12:53;11.10;86.10
56538;DHT22;42435;53.292;6.000;2023-04-01T02:15:24;11.10;86.20
56538;DHT22;42435;53.292;6.000;2023-04-01T02:17:51;11.20;86.20
56538;DHT22;42435;53.292;6.000;2023-04-01T02:20:22;11.10;86.20
56538;DHT22;42435;53.292;6.000;2023-04-01T02:22:51;11.10;86.30
56538;DHT22;42435;53.292;6.000;2023-04-01T02:25:27;11.10;86.20
56538;DHT22;42435;53.292;6.000;2023-04-01T02:27:55;11.10;86.20
56538;DHT22;42435;53.292;6.000;2023-04-01T02:30:22;11.10;86.20
56538;DHT22;42435;53.292;6.000;2023-04-01T02:32:51;11.10;86.30
56538;DHT22;42435;53.292;6.000;2023-04-01T02:35:18;11.10;86.30
56538;DHT22;42435;53.292;6.000;2023-04-01T02:37:49;11.20;86.30
56538;DHT22;42435;53.292;6.000;2023-04-01T02:40:17;11.10;86.30
56538;DHT22;42435;53.292;6.000;2023-04-01T02:42:50;11.20;86.30
56538;DHT22;42435;53.292;6.000;2023-04-01T02:45:16;11.20;86.30
56538;DHT22;42435;53.292;6.000;2023-04-01T02:47:42;11.20;86.30
56538;DHT22;42435;53.292;6.000;2023-04-01T02:50:08;11.20;86.30
56538;DHT22;42435;53.292;6.000;2023-04-01T02:52:34;11.20;86.30
56538;DHT22;42435;53.292;6.000;2023-04-01T02:55:00;11.20;86.30
56538;DHT22;42435;53.292;6.000;2023-04-01T02:57:31;11.20;86.30
56538;DHT22;42435;53.292;6.000;2023-04-01T02:59:56;11.10;86.30
56538;DHT22;42435;53.292;6.000;2023-04-01T03:02:22;11.10;86.30
56538;DHT22;42435;53.292;6.000;2023-04-01T03:04:48;11.10;86.30
56538;DHT22;42435;53.292;6.000;2023-04-01T03:07:13;11.10;86.20
56538;DHT22;42435;53.292;6.000;2023-04-01T03:09:39;11.10;86.20
56538;DHT22;42435;53.292;6.000;2023-04-01T03:12:05;11.10;86.20
56538;DHT22;42435;53.292;6.000;2023-04-01T03:14:33;11.10;86.20
56538;DHT22;42435;53.292;6.000;2023-04-01T03:17:02;11.00;86.20
56538;DHT22;42435;53.292;6.000;2023-04-01T03:19:27;11.10;86.20
56538;DHT22;42435;53.292;6.000;2023-04-01T03:21:53;11.00;86.30
56538;DHT22;42435;53.292;6.000;2023-04-01T03:24:19;11.00;86.30
56538;DHT22;42435;53.292;6.000;2023-04-01T03:26:45;11.00;86.30
56538;DHT22;42435;53.292;6.000;2023-04-01T03:29:11;11.00;86.30
56538;DHT22;42435;53.292;6.000;2023-04-01T03:31:36;11.00;86.30
56538;DHT22;42435;53.292;6.000;2023-04-01T03:34:02;11.00;86.20
56538;DHT22;42435;53.292;6.000;2023-04-01T03:36:28;11.00;86.20
56538;DHT22;42435;53.292;6.000;2023-04-01T03:38:56;11.00;86.30
56538;DHT22;42435;53.292;6.000;2023-04-01T03:41:22;10.90;86.40
56538;DHT22;42435;53.292;6.000;2023-04-01T03:43:47;11.00;86.40
56538;DHT22;42435;53.292;6.000;2023-04-01T03:46:17;11.00;86.40
56538;DHT22;42435;53.292;6.000;2023-04-01T03:48:43;11.00;86.50
56538;DHT22;42435;53.292;6.000;2023-04-01T03:51:09;11.00;86.40
56538;DHT22;42435;53.292;6.000;2023-04-01T03:53:36;11.00;86.50
56538;DHT22;42435;53.292;6.000;2023-04-01T03:56:06;11.00;86.50
56538;DHT22;42435;53.292;6.000;2023-04-01T03:58:32;11.00;86.60
56538;DHT22;42435;53.292;6.000;2023-04-01T04:01:00;11.00;86.60
56538;DHT22;42435;53.292;6.000;2023-04-01T04:03:29;11.10;86.60
56538;DHT22;42435;53.292;6.000;2023-04-01T04:05:55;11.00;86.60
56538;DHT22;42435;53.292;6.000;2023-04-01T04:08:21;11.00;86.70
56538;DHT22;42435;53.292;6.000;2023-04-01T04:10:47;11.00;86.60
56538;DHT22;42435;53.292;6.000;2023-04-01T04:13:13;11.00;86.60
56538;DHT22;42435;53.292;6.000;2023-04-01T04:15:39;11.00;86.60
56538;DHT22;42435;53.292;6.000;2023-04-01T04:18:05;11.00;86.60
56538;DHT22;42435;53.292;6.000;2023-04-01T04:20:33;11.00;86.60
56538;DHT22;42435;53.292;6.000;2023-04-01T04:23:00;11.00;86.60
56538;DHT22;42435;53.292;6.000;2023-04-01T04:25:26;11.00;86.60
56538;DHT22;42435;53.292;6.000;2023-04-01T04:27:51;11.10;86.70
56538;DHT22;42435;53.292;6.000;2023-04-01T04:30:17;11.10;86.60
56538;DHT22;42435;53.292;6.000;2023-04-01T04:32:43;11.00;86.60
56538;DHT22;42435;53.292;6.000;2023-04-01T04:35:11;11.00;86.60
56538;DHT22;42435;53.292;6.000;2023-04-01T04:37:36;11.00;86.70
56538;DHT22;42435;53.292;6.000;2023-04-01T04:40:02;11.00;86.70
56538;DHT22;42435;53.292;6.000;2023-04-01T04:42:28;11.10;86.70
56538;DHT22;42435;53.292;6.000;2023-04-01T04:44:56;11.10;86.70
56538;DHT22;42435;53.292;6.000;2023-04-01T04:47:21;11.00;86.60
56538;DHT22;42435;53.292;6.000;2023-04-01T04:49:47;11.00;86.60
56538;DHT22;42435;53.292;6.000;2023-04-01T04:52:13;11.00;86.70
56538;DHT22;42435;53.292;6.000;2023-04-01T04:54:38;11.00;86.60
56538;DHT22;42435;53.292;6.000;2023-04-01T04:57:04;11.00;86.70
56538;DHT22;42435;53.292;6.000;2023-04-01T04:59:36;11.00;86.70
56538;DHT22;42435;53.292;6.000;2023-04-01T05:02:02;11.00;86.70
56538;DHT22;42435;53.292;6.000;2023-04-01T05:04:28;11.00;86.60
56538;DHT22;42435;53.292;6.000;2023-04-01T05:06:53;10.90;86.70
56538;DHT22;42435;53.292;6.000;2023-04-01T05:09:19;11.00;86.70
56538;DHT22;42435;53.292;6.000;2023-04-01T05:11:45;11.00;86.70
56538;DHT22;42435;53.292;6.000;2023-04-01T05:14:15;10.90;86.70
56538;DHT22;42435;53.292;6.000;2023-04-01T05:16:41;10.90;86.70
56538;DHT22;42435;53.292;6.000;2023-04-01T05:19:07;10.90;86.80
56538;DHT22;42435;53.292;6.000;2023-04-01T05:21:32;10.90;86.80
56538;DHT22;42435;53.292;6.000;2023-04-01T05:23:58;10.90;86.80
56538;DHT22;42435;53.292;6.000;2023-04-01T05:26:23;10.90;86.80
56538;DHT22;42435;53.292;6.000;2023-04-01T05:28:49;10.90;86.80
56538;DHT22;42435;53.292;6.000;2023-04-01T05:31:15;10.90;86.80
56538;DHT22;42435;53.292;6.000;2023-04-01T05:33:40;10.90;86.80
56538;DHT22;42435;53.292;6.000;2023-04-01T05:36:14;10.90;86.80
56538;DHT22;42435;53.292;6.000;2023-04-01T05:38:43;10.90;86.90
56538;DHT22;42435;53.292;6.000;2023-04-01T05:41:10;10.90;86.80
56538;DHT22;42435;53.292;6.000;2023-04-01T05:43:37;10.90;86.80
56538;DHT22;42435;53.292;6.000;2023-04-01T05:46:02;10.90;86.90
56538;DHT22;42435;53.292;6.000;2023-04-01T05:48:32;10.90;86.90
56538;DHT22;42435;53.292;6.000;2023-04-01T05:51:01;10.90;86.90
56538;DHT22;42435;53.292;6.000;2023-04-01T05:53:27;10.90;86.90
56538;DHT22;42435;53.292;6.000;2023-04-01T05:55:52;10.90;86.90
56538;DHT22;42435;53.292;6.000;2023-04-01T05:58:20;10.90;87.00
56538;DHT22;42435;53.292;6.000;2023-04-01T06:00:49;10.90;87.00
56538;DHT22;42435;53.292;6.000;2023-04-01T06:03:15;10.90;87.00
56538;DHT22;42435;53.292;6.000;2023-04-01T06:05:53;11.00;87.00
56538;DHT22;42435;53.292;6.000;2023-04-01T06:08:39;11.00;87.00
56538;DHT22;42435;53.292;6.000;2023-04-01T06:11:23;11.00;87.00
56538;DHT22;42435;53.292;6.000;2023-04-01T06:14:01;11.00;87.10
56538;DHT22;42435;53.292;6.000;2023-04-01T06:28:38;11.00;86.90
56538;DHT22;42435;53.292;6.000;2023-04-01T06:31:10;11.10;87.00
56538;DHT22;42435;53.292;6.000;2023-04-01T06:33:51;11.00;87.00
56538;DHT22;42435;53.292;6.000;2023-04-01T06:36:43;11.00;87.00
56538;DHT22;42435;53.292;6.000;2023-04-01T06:42:39;11.10;87.10
56538;DHT22;42435;53.292;6.000;2023-04-01T06:53:35;11.10;87.10
56538;DHT22;42435;53.292;6.000;2023-04-01T06:56:12;11.10;87.20
56538;DHT22;42435;53.292;6.000;2023-04-01T06:58:48;11.20;87.20
56538;DHT22;42435;53.292;6.000;2023-04-01T07:01:49;11.20;87.20
56538;DHT22;42435;53.292;6.000;2023-04-01T07:04:20;11.20;87.20
56538;DHT22;42435;53.292;6.000;2023-04-01T07:07:15;11.20;87.10
56538;DHT22;42435;53.292;6.000;2023-04-01T07:09:52;11.20;87.20
56538;DHT22;42435;53.292;6.000;2023-04-01T07:12:25;11.30;87.10
56538;DHT22;42435;53.292;6.000;2023-04-01T07:18:21;11.40;87.00
56538;DHT22;42435;53.292;6.000;2023-04-01T07:20:49;11.40;86.90
56538;DHT22;42435;53.292;6.000;2023-04-01T07:23:25;11.40;86.80
56538;DHT22;42435;53.292;6.000;2023-04-01T07:26:15;11.40;86.60
56538;DHT22;42435;53.292;6.000;2023-04-01T07:28:42;11.30;86.50
56538;DHT22;42435;53.292;6.000;2023-04-01T07:36:42;11.20;86.60
56538;DHT22;42435;53.292;6.000;2023-04-01T07:41:57;11.20;86.70
56538;DHT22;42435;53.292;6.000;2023-04-01T07:44:46;11.30;86.80
56538;DHT22;42435;53.292;6.000;2023-04-01T07:50:25;11.30;86.70
56538;DHT22;42435;53.292;6.000;2023-04-01T07:56:10;11.30;86.50
56538;DHT22;42435;53.292;6.000;2023-04-01T08:01:39;11.30;86.20
56538;DHT22;42435;53.292;6.000;2023-04-01T08:04:32;11.30;86.10
56538;DHT22;42435;53.292;6.000;2023-04-01T08:07:07;11.30;86.10
56538;DHT22;42435;53.292;6.000;2023-04-01T08:09:47;11.30;86.10
56538;DHT22;42435;53.292;6.000;2023-04-01T08:12:45;11.30;86.00
56538;DHT22;42435;53.292;6.000;2023-04-01T08:15:16;11.30;86.00
56538;DHT22;42435;53.292;6.000;2023-04-01T08:18:15;11.30;85.90
56538;DHT22;42435;53.292;6.000;2023-04-01T08:20:53;11.30;85.90
56538;DHT22;42435;53.292;6.000;2023-04-01T08:23:47;11.20;85.70
56538;DHT22;42435;53.292;6.000;2023-04-01T08:26:38;11.20;85.80
56538;DHT22;42435;53.292;6.000;2023-04-01T08:32:36;11.40;86.00
56538;DHT22;42435;53.292;6.000;2023-04-01T08:43:51;11.40;85.40
56538;DHT22;42435;53.292;6.000;2023-04-01T08:46:43;11.50;85.40
56538;DHT22;42435;53.292;6.000;2023-04-01T08:52:13;11.50;85.20
56538;DHT22;42435;53.292;6.000;2023-04-01T09:00:15;11.60;84.70
56538;DHT22;42435;53.292;6.000;2023-04-01T09:03:02;11.50;84.50
56538;DHT22;42435;53.292;6.000;2023-04-01T09:05:44;11.60;84.70
56538;DHT22;42435;53.292;6.000;2023-04-01T09:08:35;11.60;84.20
56538;DHT22;42435;53.292;6.000;2023-04-01T09:19:51;11.30;83.80
56538;DHT22;42435;53.292;6.000;2023-04-01T09:39:18;11.10;84.10
56538;DHT22;42435;53.292;6.000;2023-04-01T10:15:29;10.90;83.00
56538;DHT22;42435;53.292;6.000;2023-04-01T10:29:40;10.90;83.10
56538;DHT22;42435;53.292;6.000;2023-04-01T10:36:06;11.00;83.00
56538;DHT22;42435;53.292;6.000;2023-04-01T10:41:46;11.10;82.90
56538;DHT22;42435;53.292;6.000;2023-04-01T10:44:32;11.10;82.60
56538;DHT22;42435;53.292;6.000;2023-04-01T10:47:16;11.00;82.30
56538;DHT22;42435;53.292;6.000;2023-04-01T10:50:23;10.90;82.20
56538;DHT22;42435;53.292;6.000;2023-04-01T10:53:15;10.90;82.10
56538;DHT22;42435;53.292;6.000;2023-04-01T10:58:59;10.90;82.60
56538;DHT22;42435;53.292;6.000;2023-04-01T11:16:08;10.80;81.70
56538;DHT22;42435;53.292;6.000;2023-04-01T11:32:53;11.10;81.30
56538;DHT22;42435;53.292;6.000;2023-04-01T11:35:38;11.20;81.20
56538;DHT22;42435;53.292;6.000;2023-04-01T11:41:20;11.30;81.00
56538;DHT22;42435;53.292;6.000;2023-04-01T11:44:16;11.40;80.90
56538;DHT22;42435;53.292;6.000;2023-04-01T11:47:03;11.40;80.60
56538;DHT22;42435;53.292;6.000;2023-04-01T12:03:44;11.20;80.00
56538;DHT22;42435;53.292;6.000;2023-04-01T12:14:00;10.90;80.10
56538;DHT22;42435;53.292;6.000;2023-04-01T12:22:24;10.60;80.30
56538;DHT22;42435;53.292;6.000;2023-04-01T12:25:02;10.60;80.50
56538;DHT22;42435;53.292;6.000;2023-04-01T12:27:45;10.50;80.70
56538;DHT22;42435;53.292;6.000;2023-04-01T12:30:30;10.50;80.80
56538;DHT22;42435;53.292;6.000;2023-04-01T12:33:29;10.50;80.90
56538;DHT22;42435;53.292;6.000;2023-04-01T12:41:45;10.60;80.90
56538;DHT22;42435;53.292;6.000;2023-04-01T12:47:11;10.60;80.70
56538;DHT22;42435;53.292;6.000;2023-04-01T12:55:35;10.60;80.50
56538;DHT22;42435;53.292;6.000;2023-04-01T13:03:34;10.50;80.20
56538;DHT22;42435;53.292;6.000;2023-04-01T13:11:57;10.40;80.60
56538;DHT22;42435;53.292;6.000;2023-04-01T13:15:32;10.40;80.50
56538;DHT22;42435;53.292;6.000;2023-04-01T13:20:48;10.40;80.20
56538;DHT22;42435;53.292;6.000;2023-04-01T13:26:22;10.30;80.30
56538;DHT22;42435;53.292;6.000;2023-04-01T13:29:30;10.30;80.30
56538;DHT22;42435;53.292;6.000;2023-04-01T13:40:32;10.10;80.20
56538;DHT22;42435;53.292;6.000;2023-04-01T13:46:19;10.00;80.20
56538;DHT22;42435;53.292;6.000;2023-04-01T13:52:04;9.90;80.30
56538;DHT22;42435;53.292;6.000;2023-04-01T14:00:16;9.90;80.50
56538;DHT22;42435;53.292;6.000;2023-04-01T14:11:25;9.90;80.40
56538;DHT22;42435;53.292;6.000;2023-04-01T14:14:24;9.90;80.10
56538;DHT22;42435;53.292;6.000;2023-04-01T14:21:17;9.90;80.10
56538;DHT22;42435;53.292;6.000;2023-04-01T14:32:16;9.70;80.00
56538;DHT22;42435;53.292;6.000;2023-04-01T14:46:04;9.60;80.20
56538;DHT22;42435;53.292;6.000;2023-04-01T14:48:53;9.50;80.10
56538;DHT22;42435;53.292;6.000;2023-04-01T14:51:32;9.50;80.00
56538;DHT22;42435;53.292;6.000;2023-04-01T15:05:24;9.30;80.20
56538;DHT22;42435;53.292;6.000;2023-04-01T15:10:25;9.20;80.10
56538;DHT22;42435;53.292;6.000;2023-04-01T15:19:04;9.00;80.40
56538;DHT22;42435;53.292;6.000;2023-04-01T15:21:50;9.00;80.10
56538;DHT22;42435;53.292;6.000;2023-04-01T15:24:25;8.90;80.20
56538;DHT22;42435;53.292;6.000;2023-04-01T15:29:57;8.90;80.50
56538;DHT22;42435;53.292;6.000;2023-04-01T15:41:02;8.70;80.60
56538;DHT22;42435;53.292;6.000;2023-04-01T15:43:42;8.70;80.60
56538;DHT22;42435;53.292;6.000;2023-04-01T15:51:28;8.60;80.50
56538;DHT22;42435;53.292;6.000;2023-04-01T16:00:26;8.60;80.70
56538;DHT22;42435;53.292;6.000;2023-04-01T16:11:03;8.40;80.50
56538;DHT22;42435;53.292;6.000;2023-04-01T16:19:53;8.30;80.50
56538;DHT22;42435;53.292;6.000;2023-04-01T16:22:31;8.20;80.60
56538;DHT22;42435;53.292;6.000;2023-04-01T16:25:29;8.20;80.60
56538;DHT22;42435;53.292;6.000;2023-04-01T16:28:21;8.20;80.80
56538;DHT22;42435;53.292;6.000;2023-04-01T16:33:51;8.20;81.00
56538;DHT22;42435;53.292;6.000;2023-04-01T16:39:41;8.10;81.10
56538;DHT22;42435;53.292;6.000;2023-04-01T16:42:40;8.00;81.10
56538;DHT22;42435;53.292;6.000;2023-04-01T16:47:56;8.00;81.20
56538;DHT22;42435;53.292;6.000;2023-04-01T16:53:30;7.90;81.40
56538;DHT22;42435;53.292;6.000;2023-04-01T16:58:33;7.90;81.30
56538;DHT22;42435;53.292;6.000;2023-04-01T17:01:11;7.90;81.40
56538;DHT22;42435;53.292;6.000;2023-04-01T17:03:52;7.90;81.40
56538;DHT22;42435;53.292;6.000;2023-04-01T17:06:37;7.90;81.40
56538;DHT22;42435;53.292;6.000;2023-04-01T17:23:01;7.70;81.00
56538;DHT22;42435;53.292;6.000;2023-04-01T17:33:46;7.70;81.10
56538;DHT22;42435;53.292;6.000;2023-04-01T17:36:25;7.60;81.20
56538;DHT22;42435;53.292;6.000;2023-04-01T17:47:29;7.40;81.40
56538;DHT22;42435;53.292;6.000;2023-04-01T17:52:48;7.40;81.60
56538;DHT22;42435;53.292;6.000;2023-04-01T17:55:43;7.50;81.60
56538;DHT22;42435;53.292;6.000;2023-04-01T17:58:19;7.40;81.50
56538;DHT22;42435;53.292;6.000;2023-04-01T18:07:08;7.40;81.30
56538;DHT22;42435;53.292;6.000;2023-04-01T18:12:19;7.40;81.20
56538;DHT22;42435;53.292;6.000;2023-04-01T18:15:12;7.40;81.10
56538;DHT22;42435;53.292;6.000;2023-04-01T18:17:56;7.40;81.00
56538;DHT22;42435;53.292;6.000;2023-04-01T18:23:14;7.30;80.90
56538;DHT22;42435;53.292;6.000;2023-04-01T18:25:48;7.30;80.80
56538;DHT22;42435;53.292;6.000;2023-04-01T18:30:52;7.30;80.70
56538;DHT22;42435;53.292;6.000;2023-04-01T18:39:22;7.30;80.50
56538;DHT22;42435;53.292;6.000;2023-04-01T18:42:15;7.20;80.60
56538;DHT22;42435;53.292;6.000;2023-04-01T18:45:17;7.20;80.60
56538;DHT22;42435;53.292;6.000;2023-04-01T18:48:00;7.20;80.70
56538;DHT22;42435;53.292;6.000;2023-04-01T18:55:53;7.10;80.40
56538;DHT22;42435;53.292;6.000;2023-04-01T18:58:34;7.10;80.30
56538;DHT22;42435;53.292;6.000;2023-04-01T19:04:15;7.10;80.40
56538;DHT22;42435;53.292;6.000;2023-04-01T19:06:53;7.10;80.30
56538;DHT22;42435;53.292;6.000;2023-04-01T19:09:30;7.00;80.30
56538;DHT22;42435;53.292;6.000;2023-04-01T19:17:44;7.00;80.40
56538;DHT22;42435;53.292;6.000;2023-04-01T19:20:26;7.00;80.30
56538;DHT22;42435;53.292;6.000;2023-04-01T19:28:16;7.00;80.10
56538;DHT22;42435;53.292;6.000;2023-04-01T19:30:56;7.00;80.20
56538;DHT22;42435;53.292;6.000;2023-04-01T19:39:14;7.00;80.10
56538;DHT22;42435;53.292;6.000;2023-04-01T19:42:05;6.90;80.00
56538;DHT22;42435;53.292;6.000;2023-04-01T19:50:11;6.90;80.00
56538;DHT22;42435;53.292;6.000;2023-04-01T19:52:42;6.90;80.00
56538;DHT22;42435;53.292;6.000;2023-04-01T19:55:42;6.80;79.90
56538;DHT22;42435;53.292;6.000;2023-04-01T19:58:16;6.80;80.10
56538;DHT22;42435;53.292;6.000;2023-04-01T20:00:49;6.80;80.00
56538;DHT22;42435;53.292;6.000;2023-04-01T20:03:54;6.80;80.00
56538;DHT22;42435;53.292;6.000;2023-04-01T20:09:43;6.70;79.80
56538;DHT22;42435;53.292;6.000;2023-04-01T20:12:35;6.70;79.90
56538;DHT22;42435;53.292;6.000;2023-04-01T20:17:52;6.70;79.90
56538;DHT22;42435;53.292;6.000;2023-04-01T20:20:21;6.80;79.70
56538;DHT22;42435;53.292;6.000;2023-04-01T20:22:56;6.70;79.60
56538;DHT22;42435;53.292;6.000;2023-04-01T20:36:50;6.70;79.30
56538;DHT22;42435;53.292;6.000;2023-04-01T20:42:22;6.70;79.30
56538;DHT22;42435;53.292;6.000;2023-04-01T20:44:54;6.70;79.30
56538;DHT22;42435;53.292;6.000;2023-04-01T20:47:58;6.70;79.30
56538;DHT22;42435;53.292;6.000;2023-04-01T20:50:41;6.70;79.10
56538;DHT22;42435;53.292;6.000;2023-04-01T20:53:29;6.60;78.90
56538;DHT22;42435;53.292;6.000;2023-04-01T20:56:36;6.60;79.00
56538;DHT22;42435;53.292;6.000;2023-04-01T21:05:11;6.60;79.10
56538;DHT22;42435;53.292;6.000;2023-04-01T21:10:29;6.50;78.80
56538;DHT22;42435;53.292;6.000;2023-04-01T21:19:15;6.40;78.40
56538;DHT22;42435;53.292;6.000;2023-04-01T21:44:41;6.30;78.20
56538;DHT22;42435;53.292;6.000;2023-04-01T21:47:19;6.20;78.00
56538;DHT22;42435;53.292;6.000;2023-04-01T22:06:43;6.20;77.80
56538;DHT22;42435;53.292;6.000;2023-04-01T22:09:14;6.20;77.60
56538;DHT22;42435;53.292;6.000;2023-04-01T22:11:57;6.20;77.60
56538;DHT22;42435;53.292;6.000;2023-04-01T22:15:01;6.10;77.50
56538;DHT22;42435;53.292;6.000;2023-04-01T22:17:39;6.10;77.40
56538;DHT22;42435;53.292;6.000;2023-04-01T22:20:27;6.10;77.20
56538;DHT22;42435;53.292;6.000;2023-04-01T22:25:55;6.00;76.60
56538;DHT22;42435;53.292;6.000;2023-04-01T22:31:02;5.90;76.40
56538;DHT22;42435;53.292;6.000;2023-04-01T22:34:00;5.80;76.50
56538;DHT22;42435;53.292;6.000;2023-04-01T22:39:34;5.60;76.50
56538;DHT22;42435;53.292;6.000;2023-04-01T22:50:57;5.30;76.60
56538;DHT22;42435;53.292;6.000;2023-04-01T22:53:37;5.20;76.60
56538;DHT22;42435;53.292;6.000;2023-04-01T22:56:13;5.20;76.60
56538;DHT22;42435;53.292;6.000;2023-04-01T23:01:38;5.00;76.60
56538;DHT22;42435;53.292;6.000;2023-04-01T23:04:09;5.00;76.60
56538;DHT22;42435;53.292;6.000;2023-04-01T23:06:59;4.90;76.60
56538;DHT22;42435;53.292;6.000;2023-04-01T23:09:31;4.90;76.70
56538;DHT22;42435;53.292;6.000;2023-04-01T23:12:05;4.90;76.70
56538;DHT22;42435;53.292;6.000;2023-04-01T23:20:28;4.80;76.80
56538;DHT22;42435;53.292;6.000;2023-04-01T23:23:11;4.80;76.90
56538;DHT22;42435;53.292;6.000;2023-04-01T23:25:53;4.70;76.90
56538;DHT22;42435;53.292;6.000;2023-04-01T23:31:02;4.60;76.80
56538;DHT22;42435;53.292;6.000;2023-04-01T23:33:29;4.60;76.80
56538;DHT22;42435;53.292;6.000;2023-04-01T23:38:39;4.50;76.80
56538;DHT22;42435;53.292;6.000;2023-04-01T23:41:09;4.50;76.80
56538;DHT22;42435;53.292;6.000;2023-04-01T23:43:43;4.50;76.80
56538;DHT22;42435;53.292;6.000;2023-04-01T23:46:12;4.50;76.90
56538;DHT22;42435;53.292;6.000;2023-04-01T23:48:43;4.50;76.90
56538;DHT22;42435;53.292;6.000;2023-04-01T23:51:24;4.50;77.00
56538;DHT22;42435;53.292;6.000;2023-04-01T23:54:03;4.40;77.00
56538;DHT22;42435;53.292;6.000;2023-04-01T23:56:37;4.40;77.10
56538;DHT22;42435;53.292;6.000;2023-04-01T23:59:03;4.40;77.10
